createdAt,value
2018-06-11T00:00:52.559Z,54.21
2018-06-11T00:03:18.549Z,54.18
2018-06-11T00:05:44.539Z,54.19
2018-06-11T00:08:10.522Z,54.15
2018-06-11T00:10:36.515Z,54.12
2018-06-11T00:13:02.564Z,54.04
2018-06-11T00:15:28.540Z,54.11
2018-06-11T00:17:54.519Z,54.06
2018-06-11T00:20:20.503Z,54.04
2018-06-11T00:22:46.502Z,54.02
2018-06-11T00:25:12.477Z,53.98
2018-06-11T00:27:38.462Z,53.95
2018-06-11T00:30:04.447Z,53.97
2018-06-11T00:32:30.422Z,53.92
2018-06-11T00:34:56.405Z,53.88
2018-06-11T00:37:22.381Z,53.89
2018-06-11T00:39:48.360Z,53.86
2018-06-11T00:42:14.371Z,53.86
2018-06-11T00:44:40.347Z,53.84
2018-06-11T00:47:06.331Z,53.80
2018-06-11T00:49:32.345Z,53.80
2018-06-11T00:51:58.330Z,53.80
2018-06-11T00:54:24.322Z,53.80
2018-06-11T00:56:50.307Z,53.77
2018-06-11T00:59:16.296Z,53.74
2018-06-11T01:01:42.278Z,53.69
2018-06-11T01:04:08.291Z,53.67
2018-06-11T01:06:34.272Z,53.69
2018-06-11T01:09:00.252Z,53.66
2018-06-11T01:11:26.234Z,53.64
2018-06-11T01:13:52.220Z,53.64
2018-06-11T01:16:18.234Z,53.59
2018-06-11T01:18:44.194Z,53.56
2018-06-11T01:21:10.177Z,53.54
2018-06-11T01:23:36.155Z,53.55
2018-06-11T01:26:02.143Z,53.51
2018-06-11T01:28:28.133Z,53.49
2018-06-11T01:30:54.121Z,53.47
2018-06-11T01:33:20.102Z,53.45
2018-06-11T01:35:46.085Z,53.44
2018-06-11T01:38:12.062Z,53.45
2018-06-11T01:40:38.037Z,53.42
2018-06-11T01:43:04.056Z,53.41
2018-06-11T01:45:30.033Z,53.40
2018-06-11T01:47:56.006Z,53.38
2018-06-11T01:50:21.996Z,53.37
2018-06-11T01:52:47.985Z,53.33
2018-06-11T01:55:13.971Z,53.35
2018-06-11T01:57:39.960Z,53.34
2018-06-11T02:00:05.942Z,53.31
2018-06-11T02:02:31.921Z,53.29
2018-06-11T02:04:57.905Z,53.28
2018-06-11T02:07:23.886Z,53.30
2018-06-11T02:09:49.866Z,53.26
2018-06-11T02:12:15.852Z,53.25
2018-06-11T02:14:41.867Z,53.25
2018-06-11T02:17:07.849Z,53.23
2018-06-11T02:19:33.836Z,53.21
2018-06-11T02:21:59.859Z,53.23
2018-06-11T02:24:25.803Z,53.20
2018-06-11T02:26:51.786Z,53.18
2018-06-11T02:29:17.773Z,53.17
2018-06-11T02:31:43.792Z,53.17
2018-06-11T02:34:09.789Z,53.14
2018-06-11T02:36:35.762Z,53.11
2018-06-11T02:39:01.752Z,53.14
2018-06-11T02:41:27.728Z,53.10
2018-06-11T02:43:53.705Z,53.11
2018-06-11T02:46:19.682Z,53.05
2018-06-11T02:48:45.711Z,53.05
2018-06-11T02:51:11.692Z,53.06
2018-06-11T02:53:37.686Z,53.04
2018-06-11T02:56:03.764Z,53.08
2018-06-11T02:58:29.748Z,53.07
2018-06-11T03:00:55.724Z,53.03
2018-06-11T03:03:21.733Z,53.01
2018-06-11T03:05:47.718Z,53.00
2018-06-11T03:08:13.693Z,52.97
2018-06-11T03:10:39.678Z,52.96
2018-06-11T03:13:05.651Z,52.97
2018-06-11T03:15:31.644Z,52.94
2018-06-11T03:17:57.658Z,52.94
2018-06-11T03:20:23.638Z,52.90
2018-06-11T03:22:49.618Z,52.91
2018-06-11T03:25:15.615Z,52.88
2018-06-11T03:27:41.597Z,52.88
2018-06-11T03:30:07.570Z,52.86
2018-06-11T03:32:33.549Z,52.88
2018-06-11T03:34:59.538Z,52.83
2018-06-11T03:37:25.523Z,52.84
2018-06-11T03:39:51.510Z,52.84
2018-06-11T03:42:17.491Z,52.83
2018-06-11T03:44:43.471Z,52.80
2018-06-11T03:47:09.449Z,52.80
2018-06-11T03:49:35.434Z,52.80
2018-06-11T03:52:01.463Z,52.79
2018-06-11T03:54:27.438Z,52.76
2018-06-11T03:56:53.465Z,52.76
2018-06-11T03:59:19.442Z,52.76
2018-06-11T04:01:45.427Z,52.74
2018-06-11T04:04:11.420Z,52.73
2018-06-11T04:06:37.403Z,52.71
2018-06-11T04:09:03.385Z,52.71
2018-06-11T04:11:29.367Z,52.70
2018-06-11T04:13:55.345Z,52.69
2018-06-11T04:16:21.552Z,52.74
2018-06-11T04:18:47.592Z,52.41
2018-06-11T04:21:13.573Z,52.90
2018-06-11T04:23:39.554Z,52.89
2018-06-11T04:26:05.542Z,52.85
2018-06-11T04:28:31.534Z,52.81
2018-06-11T04:30:57.522Z,52.91
2018-06-11T04:33:23.518Z,52.95
2018-06-11T04:35:49.695Z,52.97
2018-06-11T04:38:15.655Z,53.00
2018-06-11T04:40:41.631Z,53.03
2018-06-11T04:43:07.622Z,53.18
2018-06-11T04:45:33.602Z,53.83
2018-06-11T04:47:59.685Z,53.62
2018-06-11T04:50:25.669Z,53.73
2018-06-11T04:52:51.657Z,53.66
2018-06-11T04:55:17.635Z,53.99
2018-06-11T04:57:43.635Z,53.98
2018-06-11T05:00:09.618Z,53.35
2018-06-11T05:02:35.604Z,53.62
2018-06-11T05:05:01.637Z,53.87
2018-06-11T05:07:27.628Z,53.81
2018-06-11T05:09:53.646Z,53.70
2018-06-11T05:12:19.623Z,53.56
2018-06-11T05:14:45.651Z,53.63
2018-06-11T05:17:11.668Z,53.58
2018-06-11T05:19:37.646Z,53.46
2018-06-11T05:22:03.644Z,53.49
2018-06-11T05:24:29.629Z,53.46
2018-06-11T05:26:55.616Z,53.45
2018-06-11T05:29:21.606Z,53.52
2018-06-11T05:31:47.590Z,53.46
2018-06-11T05:34:13.583Z,53.50
2018-06-11T05:36:39.577Z,53.47
2018-06-11T05:39:05.624Z,53.42
2018-06-11T05:41:31.627Z,53.52
2018-06-11T05:43:57.621Z,53.39
2018-06-11T05:46:23.609Z,53.46
2018-06-11T05:48:49.587Z,53.40
2018-06-11T05:51:15.580Z,53.38
2018-06-11T05:53:41.613Z,52.42
2018-06-11T05:56:07.595Z,52.34
2018-06-11T05:58:33.582Z,52.17
2018-06-11T06:00:59.575Z,51.62
2018-06-11T06:03:25.565Z,51.53
2018-06-11T06:05:51.550Z,52.46
2018-06-11T06:08:17.558Z,52.78
2018-06-11T06:10:43.596Z,52.78
2018-06-11T06:13:09.608Z,52.42
2018-06-11T06:15:35.635Z,51.53
2018-06-11T06:18:01.592Z,52.63
2018-06-11T06:20:27.574Z,52.32
2018-06-11T06:22:53.609Z,52.45
2018-06-11T06:25:19.599Z,52.29
2018-06-11T06:27:45.624Z,52.05
2018-06-11T06:30:11.604Z,52.33
2018-06-11T06:32:39.943Z,52.58
2018-06-11T06:35:05.964Z,52.39
2018-06-11T06:37:31.913Z,51.92
2018-06-11T06:39:57.936Z,52.42
2018-06-11T06:42:23.913Z,52.46
2018-06-11T06:44:49.909Z,52.51
2018-06-11T06:47:15.896Z,52.60
2018-06-11T06:49:41.954Z,52.66
2018-06-11T06:52:07.968Z,52.74
2018-06-11T06:54:33.953Z,52.82
2018-06-11T06:56:59.935Z,52.85
2018-06-11T06:59:25.918Z,52.84
2018-06-11T07:01:51.905Z,52.85
2018-06-11T07:04:17.948Z,52.89
2018-06-11T07:06:43.898Z,52.92
2018-06-11T07:09:09.876Z,52.93
2018-06-11T07:11:35.861Z,52.92
2018-06-11T07:14:01.845Z,52.94
2018-06-11T07:16:27.853Z,52.95
2018-06-11T07:18:53.837Z,52.97
2018-06-11T07:21:19.832Z,52.98
2018-06-11T07:23:45.856Z,52.95
2018-06-11T07:26:11.836Z,52.99
2018-06-11T07:28:37.828Z,52.99
2018-06-11T07:31:03.848Z,52.98
2018-06-11T07:33:29.809Z,53.00
2018-06-11T07:35:55.779Z,53.00
2018-06-11T07:38:21.789Z,53.00
2018-06-11T07:40:47.781Z,53.04
2018-06-11T07:43:13.788Z,52.97
2018-06-11T07:45:39.813Z,52.96
2018-06-11T07:48:05.820Z,52.97
2018-06-11T07:50:31.773Z,52.98
2018-06-11T07:52:57.759Z,53.00
2018-06-11T07:55:23.733Z,53.01
2018-06-11T07:57:49.748Z,52.96
2018-06-11T08:00:15.768Z,52.96
2018-06-11T08:02:41.721Z,52.96
2018-06-11T08:05:07.710Z,52.91
2018-06-11T08:07:33.751Z,52.95
2018-06-11T08:09:59.774Z,52.93
2018-06-11T08:12:25.751Z,52.93
2018-06-11T08:14:51.744Z,52.92
2018-06-11T08:17:17.739Z,52.96
2018-06-11T08:19:43.737Z,52.99
2018-06-11T08:22:09.726Z,53.02
2018-06-11T08:24:35.846Z,53.02
2018-06-11T08:27:01.793Z,53.04
2018-06-11T08:29:27.769Z,53.04
2018-06-11T08:31:53.758Z,53.06
2018-06-11T08:34:19.731Z,53.05
2018-06-11T08:36:45.715Z,53.04
2018-06-11T08:39:11.724Z,53.04
2018-06-11T08:41:37.699Z,53.08
2018-06-11T08:44:03.683Z,53.07
2018-06-11T08:46:29.676Z,53.08
2018-06-11T08:48:55.653Z,53.08
2018-06-11T08:51:21.684Z,53.07
2018-06-11T08:53:47.662Z,53.13
2018-06-11T08:56:13.651Z,53.18
2018-06-11T08:58:39.685Z,53.12
2018-06-11T09:01:05.672Z,53.20
2018-06-11T09:03:31.653Z,53.21
2018-06-11T09:05:57.631Z,53.21
2018-06-11T09:08:23.611Z,53.23
2018-06-11T09:10:49.635Z,53.17
2018-06-11T09:13:15.611Z,53.22
2018-06-11T09:15:41.670Z,53.23
2018-06-11T09:18:07.719Z,53.22
2018-06-11T09:20:33.604Z,53.19
2018-06-11T09:22:59.609Z,53.23
2018-06-11T09:25:25.624Z,53.21
2018-06-11T09:27:51.565Z,53.24
2018-06-11T09:30:17.593Z,53.26
2018-06-11T09:32:43.579Z,53.24
2018-06-11T09:35:09.579Z,53.25
2018-06-11T09:37:35.594Z,53.25
2018-06-11T09:40:01.576Z,53.23
2018-06-11T09:42:27.573Z,53.20
2018-06-11T09:44:53.563Z,53.27
2018-06-11T09:47:19.540Z,53.28
2018-06-11T09:49:45.549Z,53.25
2018-06-11T09:52:11.525Z,53.27
2018-06-11T09:54:37.513Z,53.31
2018-06-11T09:57:03.552Z,53.27
2018-06-11T09:59:29.538Z,53.22
2018-06-11T10:01:55.523Z,53.24
2018-06-11T10:04:21.511Z,53.23
2018-06-11T10:06:47.534Z,53.20
2018-06-11T10:09:13.522Z,53.22
2018-06-11T10:11:39.489Z,53.21
2018-06-11T10:14:05.513Z,53.18
2018-06-11T10:16:31.536Z,53.18
2018-06-11T10:18:57.501Z,53.24
2018-06-11T10:21:23.516Z,53.22
2018-06-11T10:23:49.500Z,53.24
2018-06-11T10:26:15.495Z,53.19
2018-06-11T10:28:41.489Z,53.25
2018-06-11T10:31:07.481Z,53.22
2018-06-11T10:33:33.454Z,53.23
2018-06-11T10:35:59.437Z,53.20
2018-06-11T10:38:25.428Z,53.26
2018-06-11T10:40:51.411Z,53.24
2018-06-11T10:43:17.400Z,53.23
2018-06-11T10:45:43.376Z,53.22
2018-06-11T10:48:09.358Z,53.19
2018-06-11T10:50:35.366Z,53.25
2018-06-11T10:53:01.347Z,53.30
2018-06-11T10:55:27.331Z,53.32
2018-06-11T10:57:53.311Z,53.38
2018-06-11T11:00:19.326Z,53.34
2018-06-11T11:02:45.347Z,53.39
2018-06-11T11:05:11.352Z,53.40
2018-06-11T11:07:37.341Z,53.36
2018-06-11T11:10:03.338Z,53.41
2018-06-11T11:12:29.327Z,53.34
2018-06-11T11:14:55.303Z,53.43
2018-06-11T11:17:21.291Z,53.27
2018-06-11T11:19:47.273Z,53.37
2018-06-11T11:22:13.257Z,53.36
2018-06-11T11:24:39.234Z,53.34
2018-06-11T11:27:05.234Z,53.41
2018-06-11T11:29:31.225Z,53.32
2018-06-11T11:31:57.264Z,53.43
2018-06-11T11:34:23.242Z,53.41
2018-06-11T11:36:49.259Z,53.44
2018-06-11T11:39:15.222Z,53.43
2018-06-11T11:41:41.202Z,53.46
2018-06-11T11:44:07.193Z,53.51
2018-06-11T11:46:33.174Z,53.50
2018-06-11T11:48:59.159Z,53.46
2018-06-11T11:51:25.147Z,53.44
2018-06-11T11:53:51.264Z,53.49
2018-06-11T11:56:17.249Z,53.51
2018-06-11T11:58:43.245Z,53.40
2018-06-11T12:01:09.241Z,53.59
2018-06-11T12:03:35.232Z,53.58
2018-06-11T12:06:01.232Z,53.62
2018-06-11T12:08:27.213Z,53.59
2018-06-11T12:10:53.192Z,53.42
2018-06-11T12:13:19.184Z,53.47
2018-06-11T12:15:45.176Z,53.64
2018-06-11T12:18:11.159Z,53.72
2018-06-11T12:20:37.174Z,53.78
2018-06-11T12:23:03.152Z,53.76
2018-06-11T12:25:29.137Z,53.77
2018-06-11T12:27:55.121Z,53.86
2018-06-11T12:30:21.106Z,53.81
2018-06-11T12:32:47.092Z,53.83
2018-06-11T12:35:13.076Z,53.76
2018-06-11T12:37:39.054Z,53.80
2018-06-11T12:40:05.051Z,53.43
2018-06-11T12:42:31.076Z,53.24
2018-06-11T12:44:57.017Z,53.09
2018-06-11T12:47:22.999Z,53.02
2018-06-11T12:49:48.992Z,53.02
2018-06-11T12:52:17.758Z,53.04
2018-06-11T12:54:43.749Z,53.05
2018-06-11T12:57:09.764Z,53.08
2018-06-11T12:59:35.721Z,53.06
2018-06-11T13:02:01.704Z,53.19
2018-06-11T13:04:27.804Z,53.12
2018-06-11T13:06:54.319Z,52.99
2018-06-11T13:09:20.333Z,53.00
2018-06-11T13:11:46.361Z,53.14
2018-06-11T13:14:12.338Z,53.09
2018-06-11T13:16:38.317Z,52.94
2018-06-11T13:19:04.300Z,52.73
2018-06-11T13:21:30.449Z,52.53
2018-06-11T13:23:56.437Z,52.30
2018-06-11T13:26:22.429Z,52.18
2018-06-11T13:28:48.416Z,52.16
2018-06-11T13:31:14.409Z,52.07
2018-06-11T13:33:40.392Z,52.08
2018-06-11T13:36:06.385Z,52.03
2018-06-11T13:38:32.370Z,51.94
2018-06-11T13:40:58.357Z,51.91
2018-06-11T13:43:24.344Z,51.90
2018-06-11T13:45:50.325Z,52.55
2018-06-11T13:48:16.366Z,52.07
2018-06-11T13:50:42.347Z,52.32
2018-06-11T13:53:08.350Z,52.66
2018-06-11T13:55:34.354Z,52.67
2018-06-11T13:58:00.335Z,52.53
2018-06-11T14:00:26.318Z,52.39
2018-06-11T14:02:52.306Z,52.28
2018-06-11T14:05:18.308Z,52.13
2018-06-11T14:07:44.283Z,52.07
2018-06-11T14:10:10.268Z,52.00
2018-06-11T14:12:36.264Z,52.12
2018-06-11T14:15:02.321Z,52.00
2018-06-11T14:17:28.317Z,51.95
2018-06-11T14:19:54.311Z,51.96
2018-06-11T14:22:20.303Z,51.94
2018-06-11T14:24:46.317Z,51.93
2018-06-11T14:27:12.297Z,51.95
2018-06-11T14:29:38.295Z,51.97
2018-06-11T14:32:04.295Z,51.95
2018-06-11T14:34:30.276Z,51.97
2018-06-11T14:36:56.272Z,51.99
2018-06-11T14:39:22.258Z,51.83
2018-06-11T14:41:48.258Z,51.83
2018-06-11T14:44:14.239Z,51.77
2018-06-11T14:46:40.230Z,51.89
2018-06-11T14:49:06.212Z,51.75
2018-06-11T14:51:32.213Z,51.76
2018-06-11T14:53:58.221Z,51.71
2018-06-11T14:56:24.242Z,51.67
2018-06-11T14:58:50.230Z,51.68
2018-06-11T15:01:16.234Z,51.72
2018-06-11T15:03:42.237Z,51.75
2018-06-11T15:06:08.274Z,51.79
2018-06-11T15:08:34.261Z,52.24
2018-06-11T15:11:00.276Z,52.19
2018-06-11T15:13:26.252Z,52.01
2018-06-11T15:15:52.354Z,51.61
2018-06-11T15:18:18.305Z,51.57
2018-06-11T15:20:44.331Z,51.78
2018-06-11T15:23:10.362Z,51.68
2018-06-11T15:25:36.323Z,51.70
2018-06-11T15:28:02.312Z,51.51
2018-06-11T15:30:28.382Z,51.83
2018-06-11T15:32:54.405Z,52.14
2018-06-11T15:35:20.424Z,51.92
2018-06-11T15:37:46.565Z,51.80
2018-06-11T15:40:12.550Z,51.87
2018-06-11T15:42:38.536Z,51.85
2018-06-11T15:45:04.517Z,51.92
2018-06-11T15:47:30.540Z,51.86
2018-06-11T15:49:56.532Z,51.75
2018-06-11T15:52:22.687Z,51.61
2018-06-11T15:54:48.678Z,51.65
2018-06-11T15:57:14.639Z,51.27
2018-06-11T15:59:40.624Z,51.18
2018-06-11T16:02:06.612Z,51.28
2018-06-11T16:04:32.622Z,51.53
2018-06-11T16:06:58.618Z,51.87
2018-06-11T16:09:24.637Z,52.18
2018-06-11T16:11:50.622Z,52.50
2018-06-11T16:14:16.605Z,52.29
2018-06-11T16:16:42.596Z,52.17
2018-06-11T16:19:08.578Z,52.68
2018-06-11T16:21:34.614Z,52.78
2018-06-11T16:24:00.566Z,53.60
2018-06-11T16:26:26.969Z,53.76
2018-06-11T16:28:52.996Z,53.87
2018-06-11T16:31:18.982Z,53.86
2018-06-11T16:33:44.977Z,54.34
2018-06-11T16:36:10.952Z,53.83
2018-06-11T16:38:37.117Z,53.60
2018-06-11T16:41:03.075Z,53.42
2018-06-11T16:43:29.109Z,53.21
2018-06-11T16:45:55.097Z,53.24
2018-06-11T16:48:21.153Z,53.25
2018-06-11T16:50:47.168Z,52.93
2018-06-11T16:53:13.151Z,52.74
2018-06-11T16:55:39.133Z,52.53
2018-06-11T16:58:05.113Z,52.31
2018-06-11T17:00:31.093Z,52.11
2018-06-11T17:02:57.095Z,51.99
2018-06-11T17:05:23.077Z,51.94
2018-06-11T17:07:49.063Z,51.67
2018-06-11T17:10:15.043Z,51.41
2018-06-11T17:12:41.025Z,51.44
2018-06-11T17:15:07.023Z,51.21
2018-06-11T17:17:33.038Z,51.02
2018-06-11T17:19:59.025Z,50.89
2018-06-11T17:22:25.019Z,51.12
2018-06-11T17:24:51.009Z,51.38
2018-06-11T17:27:17.010Z,51.13
2018-06-11T17:29:43.023Z,50.32
2018-06-11T17:32:09.050Z,50.46
2018-06-11T17:34:35.073Z,50.45
2018-06-11T17:37:01.030Z,50.37
2018-06-11T17:39:27.019Z,50.52
2018-06-11T17:41:53.073Z,50.48
2018-06-11T17:44:19.066Z,50.61
2018-06-11T17:46:45.210Z,50.89
2018-06-11T17:49:11.258Z,50.61
2018-06-11T17:51:37.266Z,50.80
2018-06-11T17:54:03.295Z,50.68
2018-06-11T17:56:29.284Z,50.70
2018-06-11T17:58:55.333Z,50.79
2018-06-11T18:01:21.308Z,50.88
2018-06-11T18:03:47.290Z,50.88
2018-06-11T18:06:13.363Z,50.84
2018-06-11T18:08:39.331Z,50.82
2018-06-11T18:11:05.349Z,51.03
2018-06-11T18:13:31.295Z,51.14
2018-06-11T18:15:57.290Z,51.31
2018-06-11T18:18:23.683Z,51.34
2018-06-11T18:20:49.641Z,51.35
2018-06-11T18:23:15.634Z,51.48
2018-06-11T18:25:41.616Z,51.50
2018-06-11T18:28:07.602Z,51.57
2018-06-11T18:30:33.577Z,51.67
2018-06-11T18:32:59.603Z,51.61
2018-06-11T18:35:25.643Z,51.57
2018-06-11T18:37:51.577Z,51.50
2018-06-11T18:40:17.614Z,51.48
2018-06-11T18:42:43.599Z,51.44
2018-06-11T18:45:09.596Z,51.40
2018-06-11T18:47:35.596Z,51.31
2018-06-11T18:50:01.581Z,51.36
2018-06-11T18:52:27.591Z,52.16
2018-06-11T18:54:54.129Z,51.97
2018-06-11T18:57:20.114Z,52.24
2018-06-11T18:59:46.225Z,52.19
2018-06-11T19:02:12.238Z,52.47
2018-06-11T19:04:38.698Z,52.62
2018-06-11T19:07:04.652Z,52.57
2018-06-11T19:09:30.628Z,52.90
2018-06-11T19:11:56.679Z,52.67
2018-06-11T19:14:35.777Z,52.92
2018-06-11T19:17:01.733Z,52.95
2018-06-11T19:19:27.758Z,52.83
2018-06-11T19:21:53.735Z,52.88
2018-06-11T19:24:19.773Z,52.87
2018-06-11T19:26:45.748Z,52.80
2018-06-11T19:29:11.722Z,52.81
2018-06-11T19:31:37.771Z,52.88
2018-06-11T19:34:03.763Z,52.84
2018-06-11T19:36:29.783Z,52.84
2018-06-11T19:38:55.832Z,52.79
2018-06-11T19:41:21.832Z,52.77
2018-06-11T19:43:47.843Z,52.77
2018-06-11T19:46:13.814Z,52.62
2018-06-11T19:48:39.957Z,53.01
2018-06-11T19:51:06.076Z,52.86
2018-06-11T19:53:31.983Z,52.77
2018-06-11T19:55:57.979Z,52.95
2018-06-11T19:58:24.120Z,52.81
2018-06-11T20:00:50.110Z,52.82
2018-06-11T20:03:16.096Z,52.79
2018-06-11T20:05:42.107Z,52.75
2018-06-11T20:08:08.184Z,52.71
2018-06-11T20:10:34.202Z,52.68
2018-06-11T20:13:00.188Z,52.62
2018-06-11T20:15:26.167Z,52.66
2018-06-11T20:17:52.190Z,52.65
2018-06-11T20:20:18.174Z,52.63
2018-06-11T20:22:44.171Z,52.67
2018-06-11T20:25:10.163Z,52.75
2018-06-11T20:27:36.167Z,52.76
2018-06-11T20:30:02.172Z,52.87
2018-06-11T20:32:28.239Z,52.78
2018-06-11T20:34:54.144Z,52.87
2018-06-11T20:37:20.160Z,52.84
2018-06-11T20:39:46.143Z,52.90
2018-06-11T20:42:12.124Z,52.86
2018-06-11T20:44:38.120Z,52.81
2018-06-11T20:47:04.115Z,52.82
2018-06-11T20:49:30.122Z,52.74
2018-06-11T20:51:56.141Z,52.76
2018-06-11T20:54:22.134Z,52.71
2018-06-11T20:56:48.118Z,52.65
2018-06-11T20:59:14.107Z,52.64
2018-06-11T21:01:40.090Z,52.64
2018-06-11T21:04:06.075Z,52.50
2018-06-11T21:06:32.069Z,52.37
2018-06-11T21:08:58.090Z,52.34
2018-06-11T21:11:24.073Z,52.22
2018-06-11T21:13:50.064Z,52.12
2018-06-11T21:16:16.091Z,52.09
2018-06-11T21:18:42.072Z,52.02
2018-06-11T21:21:08.061Z,51.99
2018-06-11T21:23:34.088Z,51.90
2018-06-11T21:26:00.047Z,51.87
2018-06-11T21:28:26.023Z,51.78
2018-06-11T21:30:52.015Z,51.72
2018-06-11T21:33:18.001Z,51.74
2018-06-11T21:35:43.995Z,51.63
2018-06-11T21:38:09.984Z,51.56
2018-06-11T21:40:35.993Z,51.56
2018-06-11T21:43:01.984Z,51.46
2018-06-11T21:45:27.969Z,51.44
2018-06-11T21:47:53.988Z,51.41
2018-06-11T21:50:19.977Z,51.31
2018-06-11T21:52:45.972Z,51.29
2018-06-11T21:55:11.992Z,51.26
2018-06-11T21:57:37.971Z,51.22
2018-06-11T22:00:03.955Z,51.20
2018-06-11T22:02:29.946Z,51.16
2018-06-11T22:04:55.929Z,51.10
2018-06-11T22:07:21.915Z,51.06
2018-06-11T22:09:47.979Z,51.06
2018-06-11T22:12:13.976Z,50.98
2018-06-11T22:14:39.952Z,50.96
2018-06-11T22:17:05.948Z,50.91
2018-06-11T22:19:31.937Z,50.84
2018-06-11T22:21:57.921Z,50.82
2018-06-11T22:24:23.924Z,50.77
2018-06-11T22:26:49.914Z,50.79
2018-06-11T22:29:15.896Z,50.76
2018-06-11T22:31:41.891Z,50.73
2018-06-11T22:34:07.875Z,50.68
2018-06-11T22:36:33.887Z,50.65
2018-06-11T22:38:59.851Z,50.61
2018-06-11T22:41:25.850Z,50.59
2018-06-11T22:43:51.828Z,50.57
2018-06-11T22:46:17.849Z,50.50
2018-06-11T22:48:43.808Z,50.47
2018-06-11T22:51:09.792Z,50.44
2018-06-11T22:53:35.776Z,50.37
2018-06-11T22:56:01.760Z,50.37
2018-06-11T22:58:27.756Z,50.34
2018-06-11T23:08:39.176Z,50.25
2018-06-11T23:11:05.172Z,50.21
2018-06-11T23:34:21.138Z,50.42
2018-06-11T23:36:47.120Z,50.27
2018-06-11T23:39:13.093Z,50.29
2018-06-11T23:41:39.073Z,50.26
2018-06-11T23:44:05.049Z,50.20
2018-06-11T23:46:31.034Z,50.19
2018-06-11T23:48:57.021Z,50.16
2018-06-11T23:51:23.001Z,50.13
2018-06-11T23:53:48.997Z,50.07
2018-06-11T23:56:14.980Z,50.10
2018-06-11T23:58:40.964Z,50.06
